sensor_id;sensor_type;location;lat;lon;timestamp;temperature;humidity
41256;DHT22;26989;45.524;10.938;2023-06-22T00:00:01;24.00;98.90
41256;DHT22;26989;45.524;10.938;2023-06-22T00:02:35;24.00;99.00
41256;DHT22;26989;45.524;10.938;2023-06-22T00:05:02;23.90;99.10
41256;DHT22;26989;45.524;10.938;2023-06-22T00:07:29;24.10;98.90
41256;DHT22;26989;45.524;10.938;2023-06-22T00:09:55;24.10;98.90
41256;DHT22;26989;45.524;10.938;2023-06-22T00:12:22;24.10;98.70
41256;DHT22;26989;45.524;10.938;2023-06-22T00:14:49;24.00;99.10
41256;DHT22;26989;45.524;10.938;2023-06-22T00:17:16;23.90;99.50
41256;DHT22;26989;45.524;10.938;2023-06-22T00:19:43;23.80;99.90
41256;DHT22;26989;45.524;10.938;2023-06-22T00:22:10;23.70;99.90
41256;DHT22;26989;45.524;10.938;2023-06-22T00:24:37;23.60;99.90
41256;DHT22;26989;45.524;10.938;2023-06-22T00:27:04;23.70;99.90
41256;DHT22;26989;45.524;10.938;2023-06-22T00:29:32;23.80;99.90
41256;DHT22;26989;45.524;10.938;2023-06-22T00:31:59;23.80;99.90
41256;DHT22;26989;45.524;10.938;2023-06-22T00:34:26;23.80;99.90
41256;DHT22;26989;45.524;10.938;2023-06-22T00:36:53;23.80;99.90
41256;DHT22;26989;45.524;10.938;2023-06-22T00:39:20;23.80;99.90
41256;DHT22;26989;45.524;10.938;2023-06-22T00:41:46;23.80;99.90
41256;DHT22;26989;45.524;10.938;2023-06-22T00:44:13;23.80;99.90
41256;DHT22;26989;45.524;10.938;2023-06-22T00:46:40;23.60;99.90
41256;DHT22;26989;45.524;10.938;2023-06-22T00:49:07;23.60;99.90
41256;DHT22;26989;45.524;10.938;2023-06-22T00:51:34;23.70;99.90
41256;DHT22;26989;45.524;10.938;2023-06-22T00:54:05;23.70;99.90
41256;DHT22;26989;45.524;10.938;2023-06-22T00:56:32;24.00;99.90
41256;DHT22;26989;45.524;10.938;2023-06-22T00:59:00;24.00;99.90
41256;DHT22;26989;45.524;10.938;2023-06-22T01:01:30;24.10;99.90
41256;DHT22;26989;45.524;10.938;2023-06-22T01:03:57;23.90;99.90
41256;DHT22;26989;45.524;10.938;2023-06-22T01:06:29;23.90;99.90
41256;DHT22;26989;45.524;10.938;2023-06-22T01:09:28;23.90;99.90
41256;DHT22;26989;45.524;10.938;2023-06-22T01:12:01;23.90;99.90
41256;DHT22;26989;45.524;10.938;2023-06-22T01:14:38;23.90;99.90
41256;DHT22;26989;45.524;10.938;2023-06-22T01:17:08;23.80;99.90
41256;DHT22;26989;45.524;10.938;2023-06-22T01:19:48;23.50;99.90
41256;DHT22;26989;45.524;10.938;2023-06-22T01:22:25;23.50;99.90
41256;DHT22;26989;45.524;10.938;2023-06-22T01:30:08;23.40;99.90
41256;DHT22;26989;45.524;10.938;2023-06-22T01:32:38;23.30;99.90
41256;DHT22;26989;45.524;10.938;2023-06-22T01:35:08;23.30;99.90
41256;DHT22;26989;45.524;10.938;2023-06-22T01:37:37;23.30;99.90
41256;DHT22;26989;45.524;10.938;2023-06-22T01:40:08;23.10;99.90
41256;DHT22;26989;45.524;10.938;2023-06-22T01:42:36;23.20;99.90
41256;DHT22;26989;45.524;10.938;2023-06-22T01:45:05;23.30;99.90
41256;DHT22;26989;45.524;10.938;2023-06-22T01:47:32;23.20;99.90
41256;DHT22;26989;45.524;10.938;2023-06-22T01:49:59;23.30;99.90
41256;DHT22;26989;45.524;10.938;2023-06-22T01:52:26;23.20;99.90
41256;DHT22;26989;45.524;10.938;2023-06-22T01:54:53;23.10;99.90
41256;DHT22;26989;45.524;10.938;2023-06-22T01:57:20;22.90;99.90
41256;DHT22;26989;45.524;10.938;2023-06-22T02:02:27;23.10;99.90
41256;DHT22;26989;45.524;10.938;2023-06-22T02:05:05;23.10;99.90
41256;DHT22;26989;45.524;10.938;2023-06-22T02:07:41;23.10;99.90
41256;DHT22;26989;45.524;10.938;2023-06-22T02:10:09;23.20;99.90
41256;DHT22;26989;45.524;10.938;2023-06-22T02:12:39;23.10;99.90
41256;DHT22;26989;45.524;10.938;2023-06-22T02:15:10;23.00;99.90
41256;DHT22;26989;45.524;10.938;2023-06-22T02:17:39;23.00;99.90
41256;DHT22;26989;45.524;10.938;2023-06-22T02:20:12;23.00;99.90
41256;DHT22;26989;45.524;10.938;2023-06-22T02:22:40;23.20;99.90
41256;DHT22;26989;45.524;10.938;2023-06-22T02:25:07;23.20;99.90
41256;DHT22;26989;45.524;10.938;2023-06-22T02:27:34;23.00;99.90
41256;DHT22;26989;45.524;10.938;2023-06-22T02:30:02;22.90;99.90
41256;DHT22;26989;45.524;10.938;2023-06-22T02:32:29;22.90;99.90
41256;DHT22;26989;45.524;10.938;2023-06-22T02:34:55;22.90;99.90
41256;DHT22;26989;45.524;10.938;2023-06-22T02:37:22;23.00;99.90
41256;DHT22;26989;45.524;10.938;2023-06-22T02:39:51;23.00;99.90
41256;DHT22;26989;45.524;10.938;2023-06-22T02:42:18;23.20;99.90
41256;DHT22;26989;45.524;10.938;2023-06-22T02:44:47;23.10;99.90
41256;DHT22;26989;45.524;10.938;2023-06-22T02:47:14;23.10;99.90
41256;DHT22;26989;45.524;10.938;2023-06-22T02:49:41;23.10;99.90
41256;DHT22;26989;45.524;10.938;2023-06-22T02:52:08;23.10;99.90
41256;DHT22;26989;45.524;10.938;2023-06-22T02:54:35;23.00;99.90
41256;DHT22;26989;45.524;10.938;2023-06-22T02:57:02;23.10;99.90
41256;DHT22;26989;45.524;10.938;2023-06-22T02:59:29;23.10;99.90
41256;DHT22;26989;45.524;10.938;2023-06-22T03:01:59;23.10;99.90
41256;DHT22;26989;45.524;10.938;2023-06-22T03:04:27;23.10;99.90
41256;DHT22;26989;45.524;10.938;2023-06-22T03:06:54;23.20;99.90
41256;DHT22;26989;45.524;10.938;2023-06-22T03:09:21;23.30;99.90
41256;DHT22;26989;45.524;10.938;2023-06-22T03:11:48;23.30;99.90
41256;DHT22;26989;45.524;10.938;2023-06-22T03:14:14;23.20;99.90
41256;DHT22;26989;45.524;10.938;2023-06-22T03:16:42;23.20;99.90
41256;DHT22;26989;45.524;10.938;2023-06-22T03:19:08;23.10;99.90
41256;DHT22;26989;45.524;10.938;2023-06-22T03:21:37;23.00;99.90
41256;DHT22;26989;45.524;10.938;2023-06-22T03:24:06;23.00;99.90
41256;DHT22;26989;45.524;10.938;2023-06-22T03:26:33;22.80;99.90
41256;DHT22;26989;45.524;10.938;2023-06-22T03:29:01;22.80;99.90
41256;DHT22;26989;45.524;10.938;2023-06-22T03:31:28;22.80;99.90
41256;DHT22;26989;45.524;10.938;2023-06-22T03:33:54;23.00;99.90
41256;DHT22;26989;45.524;10.938;2023-06-22T03:36:22;23.10;99.90
41256;DHT22;26989;45.524;10.938;2023-06-22T03:38:51;23.20;99.90
41256;DHT22;26989;45.524;10.938;2023-06-22T03:41:18;23.20;99.90
41256;DHT22;26989;45.524;10.938;2023-06-22T03:43:45;23.20;99.90
41256;DHT22;26989;45.524;10.938;2023-06-22T03:46:12;23.20;99.90
41256;DHT22;26989;45.524;10.938;2023-06-22T03:48:39;23.10;99.90
41256;DHT22;26989;45.524;10.938;2023-06-22T03:51:05;23.20;99.90
41256;DHT22;26989;45.524;10.938;2023-06-22T03:53:32;23.30;99.90
41256;DHT22;26989;45.524;10.938;2023-06-22T03:55:59;23.30;99.90
41256;DHT22;26989;45.524;10.938;2023-06-22T03:58:26;23.20;99.90
41256;DHT22;26989;45.524;10.938;2023-06-22T04:00:53;23.30;99.90
41256;DHT22;26989;45.524;10.938;2023-06-22T04:03:20;23.30;99.90
41256;DHT22;26989;45.524;10.938;2023-06-22T04:05:48;23.40;99.90
41256;DHT22;26989;45.524;10.938;2023-06-22T04:08:15;23.50;99.90
41256;DHT22;26989;45.524;10.938;2023-06-22T04:10:43;23.60;99.90
41256;DHT22;26989;45.524;10.938;2023-06-22T04:13:10;23.80;99.90
41256;DHT22;26989;45.524;10.938;2023-06-22T04:15:37;23.70;99.90
41256;DHT22;26989;45.524;10.938;2023-06-22T04:18:04;23.90;99.90
41256;DHT22;26989;45.524;10.938;2023-06-22T04:20:31;23.70;99.90
41256;DHT22;26989;45.524;10.938;2023-06-22T04:22:59;23.90;99.90
41256;DHT22;26989;45.524;10.938;2023-06-22T04:25:26;24.20;99.90
41256;DHT22;26989;45.524;10.938;2023-06-22T04:27:53;24.30;99.90
41256;DHT22;26989;45.524;10.938;2023-06-22T04:30:20;24.40;99.90
41256;DHT22;26989;45.524;10.938;2023-06-22T04:32:47;24.40;99.90
41256;DHT22;26989;45.524;10.938;2023-06-22T04:35:23;24.60;99.90
41256;DHT22;26989;45.524;10.938;2023-06-22T04:37:50;24.60;99.90
41256;DHT22;26989;45.524;10.938;2023-06-22T04:40:25;24.50;99.90
41256;DHT22;26989;45.524;10.938;2023-06-22T04:42:53;24.70;99.90
41256;DHT22;26989;45.524;10.938;2023-06-22T04:45:21;24.80;99.90
41256;DHT22;26989;45.524;10.938;2023-06-22T04:47:48;24.70;99.90
41256;DHT22;26989;45.524;10.938;2023-06-22T04:50:15;25.20;99.90
41256;DHT22;26989;45.524;10.938;2023-06-22T04:52:42;24.90;99.90
41256;DHT22;26989;45.524;10.938;2023-06-22T04:55:09;24.80;99.90
41256;DHT22;26989;45.524;10.938;2023-06-22T04:57:38;24.50;99.90
41256;DHT22;26989;45.524;10.938;2023-06-22T05:00:06;24.60;99.90
41256;DHT22;26989;45.524;10.938;2023-06-22T05:02:40;24.50;99.90
41256;DHT22;26989;45.524;10.938;2023-06-22T05:05:07;24.70;99.90
41256;DHT22;26989;45.524;10.938;2023-06-22T05:07:35;24.80;99.90
41256;DHT22;26989;45.524;10.938;2023-06-22T05:10:03;25.00;99.90
41256;DHT22;26989;45.524;10.938;2023-06-22T05:12:30;25.40;99.90
41256;DHT22;26989;45.524;10.938;2023-06-22T05:14:57;25.90;99.90
41256;DHT22;26989;45.524;10.938;2023-06-22T05:17:25;26.30;99.90
41256;DHT22;26989;45.524;10.938;2023-06-22T05:19:52;26.60;99.90
41256;DHT22;26989;45.524;10.938;2023-06-22T05:22:19;26.30;99.90
41256;DHT22;26989;45.524;10.938;2023-06-22T05:24:46;26.00;99.90
41256;DHT22;26989;45.524;10.938;2023-06-22T05:27:14;26.30;99.90
41256;DHT22;26989;45.524;10.938;2023-06-22T05:29:41;26.90;99.90
41256;DHT22;26989;45.524;10.938;2023-06-22T05:32:09;27.00;99.90
41256;DHT22;26989;45.524;10.938;2023-06-22T05:34:37;27.30;99.90
41256;DHT22;26989;45.524;10.938;2023-06-22T05:37:04;27.10;99.90
41256;DHT22;26989;45.524;10.938;2023-06-22T05:39:31;26.60;99.90
41256;DHT22;26989;45.524;10.938;2023-06-22T05:41:58;26.80;99.90
41256;DHT22;26989;45.524;10.938;2023-06-22T05:44:25;27.60;99.90
41256;DHT22;26989;45.524;10.938;2023-06-22T05:46:52;27.20;99.90
41256;DHT22;26989;45.524;10.938;2023-06-22T05:49:18;27.00;99.90
41256;DHT22;26989;45.524;10.938;2023-06-22T05:51:45;26.90;99.90
41256;DHT22;26989;45.524;10.938;2023-06-22T05:54:12;27.10;99.90
41256;DHT22;26989;45.524;10.938;2023-06-22T05:56:40;27.40;99.90
41256;DHT22;26989;45.524;10.938;2023-06-22T05:59:07;27.40;99.90
41256;DHT22;26989;45.524;10.938;2023-06-22T06:01:34;27.30;99.90
41256;DHT22;26989;45.524;10.938;2023-06-22T06:04:05;27.40;99.90
41256;DHT22;26989;45.524;10.938;2023-06-22T06:06:35;27.90;99.90
41256;DHT22;26989;45.524;10.938;2023-06-22T06:09:04;29.20;99.10
41256;DHT22;26989;45.524;10.938;2023-06-22T06:11:31;29.10;98.80
41256;DHT22;26989;45.524;10.938;2023-06-22T06:13:58;28.40;99.70
41256;DHT22;26989;45.524;10.938;2023-06-22T06:16:25;27.80;99.90
41256;DHT22;26989;45.524;10.938;2023-06-22T06:18:52;27.60;99.90
41256;DHT22;26989;45.524;10.938;2023-06-22T06:21:21;27.70;99.90
41256;DHT22;26989;45.524;10.938;2023-06-22T06:23:48;27.60;99.90
41256;DHT22;26989;45.524;10.938;2023-06-22T06:26:15;27.50;99.90
41256;DHT22;26989;45.524;10.938;2023-06-22T06:28:44;27.40;99.90
41256;DHT22;26989;45.524;10.938;2023-06-22T06:31:11;27.30;99.90
41256;DHT22;26989;45.524;10.938;2023-06-22T06:33:38;27.30;99.90
41256;DHT22;26989;45.524;10.938;2023-06-22T06:36:05;27.40;99.90
41256;DHT22;26989;45.524;10.938;2023-06-22T06:38:35;27.50;99.90
41256;DHT22;26989;45.524;10.938;2023-06-22T06:41:02;27.60;99.90
41256;DHT22;26989;45.524;10.938;2023-06-22T06:43:28;27.70;99.90
41256;DHT22;26989;45.524;10.938;2023-06-22T06:45:55;28.10;99.90
41256;DHT22;26989;45.524;10.938;2023-06-22T06:48:22;28.40;99.90
41256;DHT22;26989;45.524;10.938;2023-06-22T06:50:49;28.60;99.90
41256;DHT22;26989;45.524;10.938;2023-06-22T06:53:16;28.90;99.90
41256;DHT22;26989;45.524;10.938;2023-06-22T06:55:43;29.10;99.90
41256;DHT22;26989;45.524;10.938;2023-06-22T06:58:12;29.30;99.90
41256;DHT22;26989;45.524;10.938;2023-06-22T07:00:40;29.30;99.90
41256;DHT22;26989;45.524;10.938;2023-06-22T07:03:08;29.20;99.90
41256;DHT22;26989;45.524;10.938;2023-06-22T07:05:35;29.20;99.90
41256;DHT22;26989;45.524;10.938;2023-06-22T07:08:02;29.40;99.90
41256;DHT22;26989;45.524;10.938;2023-06-22T07:10:29;29.70;99.90
41256;DHT22;26989;45.524;10.938;2023-06-22T07:12:57;29.70;99.90
41256;DHT22;26989;45.524;10.938;2023-06-22T07:15:24;29.90;99.90
41256;DHT22;26989;45.524;10.938;2023-06-22T07:17:51;30.00;99.50
41256;DHT22;26989;45.524;10.938;2023-06-22T07:20:18;30.10;99.40
41256;DHT22;26989;45.524;10.938;2023-06-22T07:22:46;30.10;98.90
41256;DHT22;26989;45.524;10.938;2023-06-22T07:25:14;30.20;98.70
41256;DHT22;26989;45.524;10.938;2023-06-22T07:28:02;30.30;98.60
41256;DHT22;26989;45.524;10.938;2023-06-22T07:30:30;30.40;98.40
41256;DHT22;26989;45.524;10.938;2023-06-22T07:32:58;30.30;98.50
41256;DHT22;26989;45.524;10.938;2023-06-22T07:35:30;30.20;98.70
41256;DHT22;26989;45.524;10.938;2023-06-22T07:37:57;30.30;98.80
41256;DHT22;26989;45.524;10.938;2023-06-22T07:40:24;30.40;98.50
41256;DHT22;26989;45.524;10.938;2023-06-22T07:42:51;30.40;98.50
41256;DHT22;26989;45.524;10.938;2023-06-22T07:45:24;30.80;98.00
41256;DHT22;26989;45.524;10.938;2023-06-22T07:47:51;30.90;97.50
41256;DHT22;26989;45.524;10.938;2023-06-22T07:50:19;31.00;97.40
41256;DHT22;26989;45.524;10.938;2023-06-22T07:52:46;31.20;97.20
41256;DHT22;26989;45.524;10.938;2023-06-22T07:55:14;31.10;96.90
41256;DHT22;26989;45.524;10.938;2023-06-22T07:57:41;30.70;96.80
41256;DHT22;26989;45.524;10.938;2023-06-22T08:00:09;31.00;96.50
41256;DHT22;26989;45.524;10.938;2023-06-22T08:02:42;30.90;96.60
41256;DHT22;26989;45.524;10.938;2023-06-22T08:05:12;31.40;96.00
41256;DHT22;26989;45.524;10.938;2023-06-22T08:07:59;31.40;95.20
41256;DHT22;26989;45.524;10.938;2023-06-22T08:10:26;31.60;94.70
41256;DHT22;26989;45.524;10.938;2023-06-22T08:12:53;31.60;94.60
41256;DHT22;26989;45.524;10.938;2023-06-22T08:15:20;31.70;94.40
41256;DHT22;26989;45.524;10.938;2023-06-22T08:17:47;31.70;94.30
41256;DHT22;26989;45.524;10.938;2023-06-22T08:20:14;31.80;94.00
41256;DHT22;26989;45.524;10.938;2023-06-22T08:22:41;31.90;94.00
41256;DHT22;26989;45.524;10.938;2023-06-22T08:25:09;31.90;93.80
41256;DHT22;26989;45.524;10.938;2023-06-22T08:27:36;31.90;93.30
41256;DHT22;26989;45.524;10.938;2023-06-22T08:30:04;32.00;93.80
41256;DHT22;26989;45.524;10.938;2023-06-22T08:32:31;31.90;93.90
41256;DHT22;26989;45.524;10.938;2023-06-22T08:35:00;31.70;93.50
41256;DHT22;26989;45.524;10.938;2023-06-22T08:37:28;31.90;93.30
41256;DHT22;26989;45.524;10.938;2023-06-22T08:40:08;31.90;92.90
41256;DHT22;26989;45.524;10.938;2023-06-22T08:42:37;32.00;92.90
41256;DHT22;26989;45.524;10.938;2023-06-22T08:45:04;32.00;92.80
41256;DHT22;26989;45.524;10.938;2023-06-22T08:47:32;31.90;92.70
41256;DHT22;26989;45.524;10.938;2023-06-22T08:49:59;31.90;92.20
41256;DHT22;26989;45.524;10.938;2023-06-22T08:52:26;32.00;92.70
41256;DHT22;26989;45.524;10.938;2023-06-22T08:54:53;32.10;91.00
41256;DHT22;26989;45.524;10.938;2023-06-22T08:57:21;32.20;90.40
41256;DHT22;26989;45.524;10.938;2023-06-22T08:59:48;32.20;90.60
41256;DHT22;26989;45.524;10.938;2023-06-22T09:02:15;32.30;90.50
41256;DHT22;26989;45.524;10.938;2023-06-22T09:04:42;32.40;90.20
41256;DHT22;26989;45.524;10.938;2023-06-22T09:07:09;32.40;89.60
41256;DHT22;26989;45.524;10.938;2023-06-22T09:09:36;32.20;88.10
41256;DHT22;26989;45.524;10.938;2023-06-22T09:12:03;32.10;88.70
41256;DHT22;26989;45.524;10.938;2023-06-22T09:14:31;32.20;89.10
41256;DHT22;26989;45.524;10.938;2023-06-22T09:16:58;32.00;87.70
41256;DHT22;26989;45.524;10.938;2023-06-22T09:19:25;31.80;89.40
41256;DHT22;26989;45.524;10.938;2023-06-22T09:21:52;32.20;90.70
41256;DHT22;26989;45.524;10.938;2023-06-22T09:24:20;32.50;88.20
41256;DHT22;26989;45.524;10.938;2023-06-22T09:26:47;32.70;87.70
41256;DHT22;26989;45.524;10.938;2023-06-22T09:29:14;33.10;86.90
41256;DHT22;26989;45.524;10.938;2023-06-22T09:31:41;33.10;86.90
41256;DHT22;26989;45.524;10.938;2023-06-22T09:34:08;33.30;86.40
41256;DHT22;26989;45.524;10.938;2023-06-22T09:36:36;33.00;86.50
41256;DHT22;26989;45.524;10.938;2023-06-22T09:39:03;33.10;86.40
41256;DHT22;26989;45.524;10.938;2023-06-22T09:41:33;31.40;87.20
41256;DHT22;26989;45.524;10.938;2023-06-22T09:44:00;30.90;89.00
41256;DHT22;26989;45.524;10.938;2023-06-22T09:46:26;31.60;90.00
41256;DHT22;26989;45.524;10.938;2023-06-22T09:48:54;32.30;87.50
41256;DHT22;26989;45.524;10.938;2023-06-22T09:51:22;32.70;86.60
41256;DHT22;26989;45.524;10.938;2023-06-22T09:53:51;32.80;86.10
41256;DHT22;26989;45.524;10.938;2023-06-22T09:56:17;32.70;85.40
41256;DHT22;26989;45.524;10.938;2023-06-22T09:58:46;32.20;87.80
41256;DHT22;26989;45.524;10.938;2023-06-22T10:01:13;32.50;87.20
41256;DHT22;26989;45.524;10.938;2023-06-22T10:03:43;32.60;85.00
41256;DHT22;26989;45.524;10.938;2023-06-22T10:06:10;32.40;86.20
41256;DHT22;26989;45.524;10.938;2023-06-22T10:08:37;31.70;87.80
41256;DHT22;26989;45.524;10.938;2023-06-22T10:11:05;31.50;89.90
41256;DHT22;26989;45.524;10.938;2023-06-22T10:13:32;30.90;90.20
41256;DHT22;26989;45.524;10.938;2023-06-22T10:15:59;31.10;90.60
41256;DHT22;26989;45.524;10.938;2023-06-22T10:18:26;31.60;91.20
41256;DHT22;26989;45.524;10.938;2023-06-22T10:20:53;32.20;90.30
41256;DHT22;26989;45.524;10.938;2023-06-22T10:23:20;31.60;89.00
41256;DHT22;26989;45.524;10.938;2023-06-22T10:25:48;31.30;88.50
41256;DHT22;26989;45.524;10.938;2023-06-22T10:28:15;30.60;89.20
41256;DHT22;26989;45.524;10.938;2023-06-22T10:30:42;31.20;89.10
41256;DHT22;26989;45.524;10.938;2023-06-22T10:33:11;31.60;87.40
41256;DHT22;26989;45.524;10.938;2023-06-22T10:35:38;31.90;87.30
41256;DHT22;26989;45.524;10.938;2023-06-22T10:38:05;32.40;89.40
41256;DHT22;26989;45.524;10.938;2023-06-22T10:40:36;32.70;88.90
41256;DHT22;26989;45.524;10.938;2023-06-22T10:43:14;33.00;89.80
41256;DHT22;26989;45.524;10.938;2023-06-22T10:45:42;33.20;89.10
41256;DHT22;26989;45.524;10.938;2023-06-22T10:48:09;33.20;87.20
41256;DHT22;26989;45.524;10.938;2023-06-22T10:50:36;33.20;87.00
41256;DHT22;26989;45.524;10.938;2023-06-22T10:53:03;33.30;87.10
41256;DHT22;26989;45.524;10.938;2023-06-22T10:55:30;33.20;87.60
41256;DHT22;26989;45.524;10.938;2023-06-22T10:58:18;33.30;86.60
41256;DHT22;26989;45.524;10.938;2023-06-22T11:00:45;33.10;87.60
41256;DHT22;26989;45.524;10.938;2023-06-22T11:03:12;33.20;87.00
41256;DHT22;26989;45.524;10.938;2023-06-22T11:05:41;33.10;88.00
41256;DHT22;26989;45.524;10.938;2023-06-22T11:08:08;33.30;86.10
41256;DHT22;26989;45.524;10.938;2023-06-22T11:10:35;33.40;86.00
41256;DHT22;26989;45.524;10.938;2023-06-22T11:13:02;33.20;87.30
41256;DHT22;26989;45.524;10.938;2023-06-22T11:15:30;33.30;85.80
41256;DHT22;26989;45.524;10.938;2023-06-22T11:17:58;33.30;84.60
41256;DHT22;26989;45.524;10.938;2023-06-22T11:20:25;33.40;85.50
41256;DHT22;26989;45.524;10.938;2023-06-22T11:22:52;33.40;85.20
41256;DHT22;26989;45.524;10.938;2023-06-22T11:25:19;33.40;84.20
41256;DHT22;26989;45.524;10.938;2023-06-22T11:27:46;33.30;84.10
41256;DHT22;26989;45.524;10.938;2023-06-22T11:30:13;33.30;85.30
41256;DHT22;26989;45.524;10.938;2023-06-22T11:32:40;33.40;84.10
41256;DHT22;26989;45.524;10.938;2023-06-22T11:35:07;33.30;82.90
41256;DHT22;26989;45.524;10.938;2023-06-22T11:37:34;33.20;83.70
41256;DHT22;26989;45.524;10.938;2023-06-22T11:40:01;33.30;84.20
41256;DHT22;26989;45.524;10.938;2023-06-22T11:42:33;33.50;83.10
41256;DHT22;26989;45.524;10.938;2023-06-22T11:45:01;33.40;84.10
41256;DHT22;26989;45.524;10.938;2023-06-22T11:47:29;33.40;83.80
41256;DHT22;26989;45.524;10.938;2023-06-22T11:49:56;33.40;85.10
41256;DHT22;26989;45.524;10.938;2023-06-22T11:52:23;33.40;84.60
41256;DHT22;26989;45.524;10.938;2023-06-22T11:54:49;33.40;85.70
41256;DHT22;26989;45.524;10.938;2023-06-22T11:57:16;33.50;83.90
41256;DHT22;26989;45.524;10.938;2023-06-22T11:59:43;33.50;83.60
41256;DHT22;26989;45.524;10.938;2023-06-22T12:02:10;33.70;83.60
41256;DHT22;26989;45.524;10.938;2023-06-22T12:04:37;33.50;84.20
41256;DHT22;26989;45.524;10.938;2023-06-22T12:07:04;33.50;85.00
41256;DHT22;26989;45.524;10.938;2023-06-22T12:09:31;33.40;84.00
41256;DHT22;26989;45.524;10.938;2023-06-22T12:11:58;33.50;84.80
41256;DHT22;26989;45.524;10.938;2023-06-22T12:14:25;33.60;84.30
41256;DHT22;26989;45.524;10.938;2023-06-22T12:16:52;33.40;82.90
41256;DHT22;26989;45.524;10.938;2023-06-22T12:19:19;33.40;83.80
41256;DHT22;26989;45.524;10.938;2023-06-22T12:21:45;33.30;84.40
41256;DHT22;26989;45.524;10.938;2023-06-22T12:24:12;33.50;86.20
41256;DHT22;26989;45.524;10.938;2023-06-22T12:26:39;33.60;84.90
41256;DHT22;26989;45.524;10.938;2023-06-22T12:29:06;33.80;84.90
41256;DHT22;26989;45.524;10.938;2023-06-22T12:31:33;33.00;84.90
41256;DHT22;26989;45.524;10.938;2023-06-22T12:34:00;32.60;86.40
41256;DHT22;26989;45.524;10.938;2023-06-22T12:36:27;32.60;86.70
41256;DHT22;26989;45.524;10.938;2023-06-22T12:38:54;33.00;86.60
41256;DHT22;26989;45.524;10.938;2023-06-22T12:41:22;33.30;86.70
41256;DHT22;26989;45.524;10.938;2023-06-22T12:43:49;33.60;87.00
41256;DHT22;26989;45.524;10.938;2023-06-22T12:46:16;33.80;86.70
41256;DHT22;26989;45.524;10.938;2023-06-22T12:48:42;34.20;86.20
41256;DHT22;26989;45.524;10.938;2023-06-22T12:51:09;34.30;86.00
41256;DHT22;26989;45.524;10.938;2023-06-22T12:53:37;34.30;86.30
41256;DHT22;26989;45.524;10.938;2023-06-22T12:56:04;34.30;86.00
41256;DHT22;26989;45.524;10.938;2023-06-22T12:58:30;34.30;86.40
41256;DHT22;26989;45.524;10.938;2023-06-22T13:00:57;34.40;85.40
41256;DHT22;26989;45.524;10.938;2023-06-22T13:03:24;34.50;85.60
41256;DHT22;26989;45.524;10.938;2023-06-22T13:05:53;34.70;84.60
41256;DHT22;26989;45.524;10.938;2023-06-22T13:08:20;34.80;84.40
41256;DHT22;26989;45.524;10.938;2023-06-22T13:11:01;35.00;83.90
41256;DHT22;26989;45.524;10.938;2023-06-22T13:13:28;35.10;83.70
41256;DHT22;26989;45.524;10.938;2023-06-22T13:15:55;35.10;83.70
41256;DHT22;26989;45.524;10.938;2023-06-22T13:18:22;35.00;83.60
41256;DHT22;26989;45.524;10.938;2023-06-22T13:20:49;35.10;82.60
41256;DHT22;26989;45.524;10.938;2023-06-22T13:23:15;35.20;82.60
41256;DHT22;26989;45.524;10.938;2023-06-22T13:25:42;34.80;83.10
41256;DHT22;26989;45.524;10.938;2023-06-22T13:28:09;34.70;84.00
41256;DHT22;26989;45.524;10.938;2023-06-22T13:30:53;34.60;84.60
41256;DHT22;26989;45.524;10.938;2023-06-22T13:33:20;35.20;84.00
41256;DHT22;26989;45.524;10.938;2023-06-22T13:35:47;35.00;84.70
41256;DHT22;26989;45.524;10.938;2023-06-22T13:38:14;33.70;86.40
41256;DHT22;26989;45.524;10.938;2023-06-22T13:40:41;33.30;86.70
41256;DHT22;26989;45.524;10.938;2023-06-22T13:43:08;33.70;87.30
41256;DHT22;26989;45.524;10.938;2023-06-22T13:45:34;34.20;85.20
41256;DHT22;26989;45.524;10.938;2023-06-22T13:48:02;34.70;84.60
41256;DHT22;26989;45.524;10.938;2023-06-22T13:50:29;34.90;84.20
41256;DHT22;26989;45.524;10.938;2023-06-22T13:52:57;35.10;84.10
41256;DHT22;26989;45.524;10.938;2023-06-22T13:55:24;34.70;85.00
41256;DHT22;26989;45.524;10.938;2023-06-22T13:57:50;34.80;84.60
41256;DHT22;26989;45.524;10.938;2023-06-22T14:00:18;35.10;84.40
41256;DHT22;26989;45.524;10.938;2023-06-22T14:02:45;35.20;84.80
41256;DHT22;26989;45.524;10.938;2023-06-22T14:05:12;35.30;84.20
41256;DHT22;26989;45.524;10.938;2023-06-22T14:07:40;34.30;85.90
41256;DHT22;26989;45.524;10.938;2023-06-22T14:10:07;33.60;88.70
41256;DHT22;26989;45.524;10.938;2023-06-22T14:12:34;34.20;87.00
41256;DHT22;26989;45.524;10.938;2023-06-22T14:15:01;34.60;86.40
41256;DHT22;26989;45.524;10.938;2023-06-22T14:17:28;35.10;86.10
41256;DHT22;26989;45.524;10.938;2023-06-22T14:19:55;35.40;85.80
41256;DHT22;26989;45.524;10.938;2023-06-22T14:22:22;35.60;85.00
41256;DHT22;26989;45.524;10.938;2023-06-22T14:24:49;35.80;84.80
41256;DHT22;26989;45.524;10.938;2023-06-22T14:27:16;36.10;83.90
41256;DHT22;26989;45.524;10.938;2023-06-22T14:29:43;36.20;84.50
41256;DHT22;26989;45.524;10.938;2023-06-22T14:32:10;35.70;84.80
41256;DHT22;26989;45.524;10.938;2023-06-22T14:34:37;35.10;85.40
41256;DHT22;26989;45.524;10.938;2023-06-22T14:37:09;35.70;84.80
41256;DHT22;26989;45.524;10.938;2023-06-22T14:39:37;35.70;84.40
41256;DHT22;26989;45.524;10.938;2023-06-22T14:42:04;35.50;84.20
41256;DHT22;26989;45.524;10.938;2023-06-22T14:44:31;35.40;83.60
41256;DHT22;26989;45.524;10.938;2023-06-22T14:46:58;35.20;83.70
41256;DHT22;26989;45.524;10.938;2023-06-22T14:49:24;35.00;83.50
41256;DHT22;26989;45.524;10.938;2023-06-22T14:51:51;35.00;84.00
41256;DHT22;26989;45.524;10.938;2023-06-22T14:54:18;35.00;83.40
41256;DHT22;26989;45.524;10.938;2023-06-22T14:56:45;35.10;82.90
41256;DHT22;26989;45.524;10.938;2023-06-22T14:59:12;35.30;80.70
41256;DHT22;26989;45.524;10.938;2023-06-22T15:01:39;35.70;79.90
41256;DHT22;26989;45.524;10.938;2023-06-22T15:04:07;35.90;79.00
41256;DHT22;26989;45.524;10.938;2023-06-22T15:06:34;36.10;79.30
41256;DHT22;26989;45.524;10.938;2023-06-22T15:09:01;36.10;79.70
41256;DHT22;26989;45.524;10.938;2023-06-22T15:11:28;35.40;80.50
41256;DHT22;26989;45.524;10.938;2023-06-22T15:13:58;34.90;82.30
41256;DHT22;26989;45.524;10.938;2023-06-22T15:16:25;35.10;82.70
41256;DHT22;26989;45.524;10.938;2023-06-22T15:18:52;35.10;81.20
41256;DHT22;26989;45.524;10.938;2023-06-22T15:21:19;34.30;81.60
41256;DHT22;26989;45.524;10.938;2023-06-22T15:23:46;33.80;82.50
41256;DHT22;26989;45.524;10.938;2023-06-22T15:26:13;34.00;83.40